createdAt,value
2019-06-10T00:00:13.842Z,16.30
2019-06-10T00:02:38.328Z,16.20
2019-06-10T00:05:10.975Z,16.30
2019-06-10T00:07:41.529Z,16.40
2019-06-10T00:10:13.849Z,16.40
2019-06-10T00:12:44.226Z,16.40
2019-06-10T00:15:14.624Z,16.30
2019-06-10T00:17:55.015Z,16.10
2019-06-10T00:20:17.250Z,16.00
2019-06-10T00:22:47.777Z,16.00
2019-06-10T00:25:18.268Z,16.00
2019-06-10T00:27:51.066Z,16.00
2019-06-10T00:30:20.935Z,16.10
2019-06-10T00:32:51.622Z,16.10
2019-06-10T00:35:22.072Z,16.00
2019-06-10T00:37:52.634Z,16.00
2019-06-10T00:40:23.113Z,15.80
2019-06-10T00:42:53.601Z,15.70
2019-06-10T00:45:24.142Z,15.70
2019-06-10T00:48:08.584Z,15.60
2019-06-10T00:50:26.762Z,15.60
2019-06-10T00:53:01.296Z,15.70
2019-06-10T00:55:32.214Z,15.70
2019-06-10T00:58:04.058Z,15.60
2019-06-10T01:00:34.691Z,15.60
2019-06-10T01:03:06.040Z,15.60
2019-06-10T01:05:36.674Z,15.70
2019-06-10T01:08:08.622Z,15.70
2019-06-10T01:10:43.249Z,15.70
2019-06-10T01:13:12.260Z,15.50
2019-06-10T01:15:44.009Z,15.40
2019-06-10T01:18:31.990Z,15.30
2019-06-10T01:20:46.949Z,15.40
2019-06-10T01:23:17.673Z,15.40
2019-06-10T01:25:50.924Z,15.50
2019-06-10T01:28:22.023Z,15.40
2019-06-10T01:30:52.749Z,15.20
2019-06-10T01:33:23.170Z,15.30
2019-06-10T01:35:53.576Z,15.30
2019-06-10T01:38:24.010Z,15.30
2019-06-10T01:40:54.316Z,15.30
2019-06-10T01:43:24.862Z,15.10
2019-06-10T01:45:55.322Z,15.10
2019-06-10T01:48:40.195Z,15.20
2019-06-10T01:50:58.001Z,15.20
2019-06-10T01:53:31.192Z,15.20
2019-06-10T01:56:01.023Z,15.10
2019-06-10T01:58:31.785Z,15.20
2019-06-10T02:01:18.357Z,15.20
2019-06-10T02:03:47.299Z,15.30
2019-06-10T02:06:20.496Z,15.30
2019-06-10T02:08:51.510Z,15.40
2019-06-10T02:11:23.452Z,15.50
2019-06-10T02:13:54.230Z,15.60
2019-06-10T02:16:24.646Z,15.60
2019-06-10T02:19:00.496Z,15.70
2019-06-10T02:21:27.330Z,15.70
2019-06-10T02:23:57.812Z,15.60
2019-06-10T02:26:30.736Z,15.60
2019-06-10T02:29:00.773Z,15.60
2019-06-10T02:31:37.267Z,15.40
2019-06-10T02:34:03.743Z,15.50
2019-06-10T02:36:36.833Z,15.70
2019-06-10T02:39:09.661Z,15.80
2019-06-10T02:41:44.164Z,15.80
2019-06-10T02:44:17.178Z,15.90
2019-06-10T02:46:44.732Z,15.90
2019-06-10T02:49:29.678Z,15.90
2019-06-10T02:51:47.305Z,15.90
2019-06-10T02:54:20.236Z,15.90
2019-06-10T02:56:53.451Z,16.00
2019-06-10T02:59:27.538Z,16.00
2019-06-10T03:01:54.137Z,16.00
2019-06-10T03:04:31.466Z,16.00
2019-06-10T03:06:56.833Z,16.00
2019-06-10T03:09:31.583Z,16.00
2019-06-10T03:11:59.508Z,15.90
2019-06-10T03:14:29.894Z,15.90
2019-06-10T03:17:03.171Z,15.90
2019-06-10T03:19:46.502Z,15.90
2019-06-10T03:22:06.286Z,15.90
2019-06-10T03:24:36.826Z,15.90
2019-06-10T03:27:27.860Z,16.00
2019-06-10T03:30:02.752Z,16.00
2019-06-10T03:32:40.324Z,15.90
2019-06-10T03:35:05.336Z,15.90
2019-06-10T03:37:36.370Z,15.80
2019-06-10T03:40:06.992Z,15.70
2019-06-10T03:42:37.420Z,15.70
2019-06-10T03:45:08.492Z,15.70
2019-06-10T03:47:39.002Z,15.70
2019-06-10T03:50:09.496Z,15.70
2019-06-10T03:52:39.981Z,15.70
2019-06-10T03:55:12.256Z,15.70
2019-06-10T03:57:42.580Z,15.70
2019-06-10T04:00:14.226Z,15.70
2019-06-10T04:02:44.717Z,15.70
2019-06-10T04:05:15.147Z,15.70
2019-06-10T04:07:45.696Z,15.60
2019-06-10T04:10:17.440Z,15.70
2019-06-10T04:12:48.139Z,15.70
2019-06-10T04:15:19.711Z,15.70
2019-06-10T04:17:50.070Z,15.70
2019-06-10T04:20:24.670Z,15.70
2019-06-10T04:22:52.724Z,15.60
2019-06-10T04:25:25.286Z,15.70
2019-06-10T04:27:55.406Z,15.70
2019-06-10T04:30:27.559Z,15.80
2019-06-10T04:32:57.932Z,15.90
2019-06-10T04:35:29.120Z,16.00
2019-06-10T04:37:59.643Z,15.90
2019-06-10T04:40:30.049Z,16.00
2019-06-10T04:43:02.887Z,16.00
2019-06-10T04:45:32.649Z,16.00
2019-06-10T04:48:03.251Z,15.90
2019-06-10T04:50:42.155Z,15.90
2019-06-10T04:53:05.821Z,16.00
2019-06-10T04:55:36.167Z,16.10
2019-06-10T04:58:06.642Z,16.00
2019-06-10T05:00:37.076Z,16.00
2019-06-10T05:03:07.503Z,16.10
2019-06-10T05:05:37.976Z,16.20
2019-06-10T05:08:08.464Z,16.10
2019-06-10T05:10:38.925Z,16.20
2019-06-10T05:13:09.414Z,16.20
2019-06-10T05:15:39.801Z,16.20
2019-06-10T05:18:10.281Z,16.20
2019-06-10T05:20:54.079Z,16.20
2019-06-10T05:23:13.180Z,16.10
2019-06-10T05:25:43.666Z,16.20
2019-06-10T05:28:14.189Z,16.20
2019-06-10T05:30:44.524Z,16.30
2019-06-10T05:33:15.003Z,16.30
2019-06-10T05:35:45.416Z,16.40
2019-06-10T05:38:15.987Z,16.30
2019-06-10T05:40:46.393Z,16.40
2019-06-10T05:43:16.834Z,16.40
2019-06-10T05:45:47.273Z,16.40
2019-06-10T05:48:17.665Z,16.30
2019-06-10T05:51:00.122Z,16.20
2019-06-10T05:53:23.115Z,16.10
2019-06-10T05:55:53.049Z,16.00
2019-06-10T05:58:24.793Z,16.00
2019-06-10T06:00:55.772Z,15.90
2019-06-10T06:03:26.294Z,15.80
2019-06-10T06:05:56.797Z,15.70
2019-06-10T06:08:27.513Z,15.70
2019-06-10T06:10:57.906Z,15.50
2019-06-10T06:13:29.462Z,15.50
2019-06-10T06:16:00.076Z,15.50
2019-06-10T06:18:33.210Z,15.40
2019-06-10T06:21:19.352Z,15.40
2019-06-10T06:23:36.735Z,15.50
2019-06-10T06:26:06.818Z,15.50
2019-06-10T06:28:38.251Z,15.50
2019-06-10T06:31:08.795Z,15.50
2019-06-10T06:33:39.893Z,15.50
2019-06-10T06:36:12.595Z,15.50
2019-06-10T06:38:43.882Z,15.50
2019-06-10T06:41:14.387Z,15.50
2019-06-10T06:43:45.484Z,15.50
2019-06-10T06:46:16.040Z,15.60
2019-06-10T06:48:46.532Z,15.70
2019-06-10T06:51:32.633Z,15.70
2019-06-10T06:53:53.064Z,15.80
2019-06-10T06:56:23.080Z,15.90
2019-06-10T06:58:53.754Z,15.80
2019-06-10T07:01:25.870Z,15.70
2019-06-10T07:03:56.453Z,15.80
2019-06-10T07:06:27.345Z,15.90
2019-06-10T07:09:04.665Z,15.90
2019-06-10T07:11:36.985Z,15.90
2019-06-10T07:14:09.208Z,15.90
2019-06-10T07:16:39.694Z,16.00
2019-06-10T07:19:10.184Z,15.90
2019-06-10T07:22:02.761Z,16.10
2019-06-10T07:24:12.886Z,16.00
2019-06-10T07:26:50.606Z,16.20
2019-06-10T07:29:15.475Z,16.30
2019-06-10T07:31:50.010Z,16.30
2019-06-10T07:34:18.241Z,16.40
2019-06-10T07:36:48.650Z,16.60
2019-06-10T07:39:19.019Z,16.90
2019-06-10T07:41:49.506Z,17.10
2019-06-10T07:44:22.507Z,17.40
2019-06-10T07:46:52.984Z,17.70
2019-06-10T07:49:24.033Z,17.90
2019-06-10T07:51:54.593Z,18.30
2019-06-10T07:54:25.067Z,18.50
2019-06-10T07:56:55.650Z,18.80
2019-06-10T07:59:26.159Z,19.10
2019-06-10T08:01:56.720Z,19.30
2019-06-10T08:04:27.053Z,19.60
2019-06-10T08:06:57.552Z,20.00
2019-06-10T08:09:27.995Z,20.00
2019-06-10T08:11:58.377Z,20.00
2019-06-10T08:14:28.845Z,20.00
2019-06-10T08:16:59.322Z,19.90
2019-06-10T08:19:37.455Z,19.90
2019-06-10T08:22:02.885Z,20.20
2019-06-10T08:24:33.542Z,20.40
2019-06-10T08:27:04.415Z,20.50
2019-06-10T08:29:34.897Z,20.70
2019-06-10T08:32:05.433Z,20.90
2019-06-10T08:34:40.814Z,21.30
2019-06-10T08:37:13.626Z,21.70
2019-06-10T08:39:45.858Z,22.10
2019-06-10T08:42:15.845Z,22.60
2019-06-10T08:44:48.434Z,22.70
2019-06-10T08:47:18.541Z,23.10
2019-06-10T08:49:49.205Z,23.60
2019-06-10T08:52:19.856Z,23.90
2019-06-10T08:54:54.082Z,24.20
2019-06-10T08:57:23.858Z,24.10
2019-06-10T08:59:54.805Z,24.20
2019-06-10T09:02:25.339Z,24.40
2019-06-10T09:04:56.207Z,24.40
2019-06-10T09:07:26.667Z,24.40
2019-06-10T09:09:58.971Z,24.60
2019-06-10T09:12:33.957Z,24.20
2019-06-10T09:15:03.741Z,23.90
2019-06-10T09:17:33.965Z,23.60
2019-06-10T09:20:05.149Z,23.70
2019-06-10T09:22:35.530Z,24.10
2019-06-10T09:25:06.438Z,24.60
2019-06-10T09:27:36.851Z,25.20
2019-06-10T09:30:09.121Z,25.70
2019-06-10T09:32:39.809Z,25.60
2019-06-10T09:35:13.263Z,25.30
2019-06-10T09:37:48.370Z,25.50
2019-06-10T09:40:16.382Z,25.80
2019-06-10T09:42:50.250Z,26.30
2019-06-10T09:45:19.520Z,26.50
2019-06-10T09:47:55.547Z,26.70
2019-06-10T09:50:41.146Z,26.80
2019-06-10T09:53:12.706Z,26.70
2019-06-10T09:55:46.336Z,27.00
2019-06-10T09:58:16.413Z,27.60
2019-06-10T10:00:52.472Z,28.00
2019-06-10T10:03:23.922Z,28.10
2019-06-10T10:06:07.371Z,28.00
2019-06-10T10:08:25.827Z,28.40
2019-06-10T10:10:58.947Z,29.00
2019-06-10T10:13:28.738Z,29.40
2019-06-10T10:15:59.345Z,29.80
2019-06-10T10:18:32.640Z,29.90
2019-06-10T10:21:03.905Z,30.00
2019-06-10T10:23:50.352Z,30.50
2019-06-10T10:26:06.988Z,30.50
2019-06-10T10:28:37.468Z,30.80
2019-06-10T10:31:07.993Z,31.00
2019-06-10T10:33:38.408Z,30.60
2019-06-10T10:36:08.935Z,30.70
2019-06-10T10:38:39.369Z,30.80
2019-06-10T10:41:12.958Z,31.30
2019-06-10T10:43:45.730Z,32.00
2019-06-10T10:46:15.575Z,32.00
2019-06-10T10:48:47.070Z,32.80
2019-06-10T10:51:17.712Z,33.00
2019-06-10T10:53:57.282Z,33.00
2019-06-10T10:56:22.326Z,33.20
2019-06-10T10:58:57.672Z,32.90
2019-06-10T11:01:24.960Z,33.30
2019-06-10T11:03:58.891Z,33.00
2019-06-10T11:06:27.625Z,32.20
2019-06-10T11:08:58.042Z,33.20
2019-06-10T11:11:29.251Z,33.70
2019-06-10T11:14:03.543Z,33.80
2019-06-10T11:16:33.441Z,34.10
2019-06-10T11:19:03.919Z,34.30
2019-06-10T11:21:34.388Z,34.80
2019-06-10T11:24:05.275Z,34.20
2019-06-10T11:26:35.701Z,33.60
2019-06-10T11:29:06.151Z,32.80
2019-06-10T11:31:36.531Z,31.80
2019-06-10T11:34:06.987Z,31.60
2019-06-10T11:36:37.512Z,31.60
2019-06-10T11:39:09.528Z,32.10
2019-06-10T11:41:39.966Z,31.50
2019-06-10T11:44:10.406Z,31.50
2019-06-10T11:46:42.885Z,30.90
2019-06-10T11:49:13.131Z,30.50
2019-06-10T11:51:43.674Z,30.70
2019-06-10T11:54:15.007Z,30.50
2019-06-10T11:56:45.517Z,30.00
2019-06-10T11:59:16.307Z,29.60
2019-06-10T12:01:46.801Z,30.10
2019-06-10T12:04:18.001Z,30.40
2019-06-10T12:06:49.108Z,30.80
2019-06-10T12:09:20.756Z,30.70
2019-06-10T12:11:54.676Z,30.60
2019-06-10T12:14:26.987Z,30.60
2019-06-10T12:19:28.374Z,28.80
2019-06-10T12:22:04.636Z,28.40
2019-06-10T12:24:33.219Z,28.00
2019-06-10T12:27:05.034Z,27.70
2019-06-10T12:29:35.749Z,27.70
2019-06-10T12:32:07.942Z,27.80
2019-06-10T12:34:38.495Z,27.80
2019-06-10T12:37:13.004Z,27.70
2019-06-10T12:39:42.187Z,27.60
2019-06-10T12:42:14.405Z,27.30
2019-06-10T12:44:45.174Z,27.80
2019-06-10T12:47:15.629Z,28.80
2019-06-10T12:49:46.077Z,29.00
2019-06-10T12:52:16.631Z,29.30
2019-06-10T12:54:48.014Z,29.50
2019-06-10T12:57:19.070Z,29.20
2019-06-10T12:59:49.569Z,29.50
2019-06-10T13:02:24.004Z,30.20
2019-06-10T13:04:55.305Z,31.00
2019-06-10T13:07:26.015Z,31.50
2019-06-10T13:09:57.941Z,31.90
2019-06-10T13:12:28.452Z,32.00
2019-06-10T13:14:59.938Z,32.20
2019-06-10T13:17:31.033Z,32.00
2019-06-10T13:20:05.764Z,31.80
2019-06-10T13:22:33.832Z,31.60
2019-06-10T13:25:04.774Z,31.50
2019-06-10T13:27:35.415Z,31.40
2019-06-10T13:30:08.357Z,31.00
2019-06-10T13:32:39.050Z,30.60
2019-06-10T13:35:12.315Z,30.60
2019-06-10T13:37:42.877Z,31.10
2019-06-10T13:40:13.655Z,31.70
2019-06-10T13:42:44.083Z,31.60
2019-06-10T13:45:15.084Z,31.90
2019-06-10T13:47:45.551Z,31.80
2019-06-10T13:50:19.287Z,31.90
2019-06-10T13:52:49.134Z,31.90
2019-06-10T13:55:22.210Z,31.10
2019-06-10T13:57:53.223Z,31.10
2019-06-10T14:00:40.350Z,30.90
2019-06-10T14:02:56.608Z,30.60
2019-06-10T14:05:27.233Z,30.30
2019-06-10T14:07:57.857Z,30.10
2019-06-10T14:10:28.558Z,30.10
2019-06-10T14:12:59.124Z,30.10
2019-06-10T14:15:32.767Z,29.70
2019-06-10T14:18:04.300Z,29.80
2019-06-10T14:20:36.748Z,29.90
2019-06-10T14:23:08.022Z,29.80
2019-06-10T14:25:38.470Z,29.70
2019-06-10T14:28:11.976Z,29.60
2019-06-10T14:30:42.998Z,29.60
2019-06-10T14:33:16.530Z,29.50
2019-06-10T14:35:46.574Z,29.50
2019-06-10T14:38:17.166Z,29.40
2019-06-10T14:40:47.869Z,29.20
2019-06-10T14:43:18.604Z,29.00
2019-06-10T14:45:49.187Z,28.90
2019-06-10T14:48:22.974Z,28.70
2019-06-10T14:50:52.661Z,28.60
2019-06-10T14:53:23.352Z,28.60
2019-06-10T14:55:54.118Z,28.50
2019-06-10T14:58:24.911Z,28.30
2019-06-10T15:00:55.507Z,28.20
2019-06-10T15:03:26.535Z,28.10
2019-06-10T15:05:57.140Z,27.90
2019-06-10T15:08:27.785Z,27.80
2019-06-10T15:10:58.253Z,27.40
2019-06-10T15:13:28.779Z,27.20
2019-06-10T15:15:59.399Z,27.00
2019-06-10T15:18:29.907Z,26.80
2019-06-10T15:21:02.775Z,26.60
2019-06-10T15:23:32.768Z,26.60
2019-06-10T15:26:03.307Z,26.60
2019-06-10T15:28:33.840Z,26.40
2019-06-10T15:31:04.291Z,26.40
2019-06-10T15:33:34.879Z,26.20
2019-06-10T15:36:05.274Z,26.00
2019-06-10T15:38:35.909Z,25.80
2019-06-10T15:41:06.393Z,25.70
2019-06-10T15:43:36.879Z,25.60
2019-06-10T15:46:07.451Z,25.30
2019-06-10T15:48:37.880Z,25.30
2019-06-10T15:51:08.435Z,25.20
2019-06-10T15:53:38.933Z,25.00
2019-06-10T15:56:22.559Z,24.90
2019-06-10T15:58:43.278Z,24.80
2019-06-10T16:01:16.477Z,24.70
2019-06-10T16:03:45.918Z,24.60
2019-06-10T16:06:16.308Z,24.60
2019-06-10T16:08:46.763Z,24.50
2019-06-10T16:11:18.895Z,24.40
2019-06-10T16:13:49.353Z,24.40
2019-06-10T16:16:20.945Z,24.40
2019-06-10T16:18:52.781Z,24.20
2019-06-10T16:21:23.819Z,24.20
2019-06-10T16:23:54.241Z,24.00
2019-06-10T16:26:26.703Z,23.50
2019-06-10T16:28:57.539Z,22.50
2019-06-10T16:31:27.989Z,20.90
2019-06-10T16:33:58.524Z,19.00
2019-06-10T16:36:28.912Z,17.80
2019-06-10T16:38:59.275Z,17.20
2019-06-10T16:41:32.268Z,16.80
2019-06-10T16:44:02.976Z,16.70
2019-06-10T16:46:33.629Z,16.80
2019-06-10T16:49:04.164Z,17.00
2019-06-10T16:51:34.674Z,17.20
2019-06-10T16:54:05.562Z,17.40
2019-06-10T16:56:36.045Z,17.60
2019-06-10T16:59:06.518Z,17.60
2019-06-10T17:01:37.014Z,17.70
2019-06-10T17:04:08.077Z,17.80
2019-06-10T17:06:38.545Z,17.90
2019-06-10T17:09:09.566Z,17.90
2019-06-10T17:11:42.404Z,17.90
2019-06-10T17:14:14.856Z,18.00
2019-06-10T17:16:46.940Z,18.10
2019-06-10T17:19:18.619Z,18.10
2019-06-10T17:21:49.138Z,18.10
2019-06-10T17:24:21.028Z,18.10
2019-06-10T17:26:53.185Z,18.20
2019-06-10T17:29:25.943Z,18.00
2019-06-10T17:31:57.958Z,18.10
2019-06-10T17:34:29.674Z,18.00
2019-06-10T17:37:02.970Z,18.00
2019-06-10T17:39:34.509Z,18.00
2019-06-10T17:42:05.564Z,18.00
2019-06-10T17:44:35.991Z,17.90
2019-06-10T17:47:06.457Z,17.90
2019-06-10T17:49:42.051Z,17.80
2019-06-10T17:52:13.787Z,17.80
2019-06-10T17:54:46.859Z,17.90
2019-06-10T17:57:17.366Z,18.00
2019-06-10T17:59:47.911Z,17.90
2019-06-10T18:02:19.035Z,17.90
2019-06-10T18:04:52.637Z,17.90
2019-06-10T18:07:24.146Z,17.90
2019-06-10T18:09:57.454Z,18.00
2019-06-10T18:12:28.429Z,18.00
2019-06-10T18:15:03.496Z,18.00
2019-06-10T18:17:36.033Z,18.00
2019-06-10T18:20:07.226Z,18.00
2019-06-10T18:22:37.738Z,18.00
2019-06-10T18:25:09.073Z,18.00
2019-06-10T18:27:41.415Z,17.90
2019-06-10T18:30:14.466Z,18.00
2019-06-10T18:32:45.419Z,18.00
2019-06-10T18:35:16.613Z,17.90
2019-06-10T18:37:47.155Z,17.90
2019-06-10T18:40:18.634Z,17.90
2019-06-10T18:42:52.313Z,17.90
2019-06-10T18:45:24.107Z,17.80
2019-06-10T18:47:54.561Z,17.90
2019-06-10T18:50:28.104Z,17.80
2019-06-10T18:53:00.686Z,17.70
2019-06-10T18:55:35.885Z,17.70
2019-06-10T18:58:05.641Z,17.70
2019-06-10T19:00:53.434Z,17.70
2019-06-10T19:03:13.902Z,17.60
2019-06-10T19:05:42.165Z,17.60
2019-06-10T19:08:14.779Z,17.60
2019-06-10T19:10:45.784Z,17.50
2019-06-10T19:13:16.409Z,17.40
2019-06-10T19:15:48.253Z,17.30
2019-06-10T19:18:18.726Z,17.20
2019-06-10T19:20:49.434Z,17.10
2019-06-10T19:23:22.165Z,17.00
2019-06-10T19:25:53.639Z,17.00
2019-06-10T19:28:25.197Z,16.90
2019-06-10T19:30:55.827Z,16.90
2019-06-10T19:33:27.039Z,16.90
2019-06-10T19:35:57.851Z,16.80
2019-06-10T19:38:28.487Z,16.90
2019-06-10T19:40:59.345Z,16.90
2019-06-10T19:43:29.713Z,16.90
2019-06-10T19:46:02.990Z,16.90
2019-06-10T19:48:59.457Z,16.90
2019-06-10T19:51:24.094Z,16.80
2019-06-10T19:53:54.627Z,16.90
2019-06-10T19:56:26.527Z,16.90
2019-06-10T19:58:57.049Z,16.80
2019-06-10T20:01:27.415Z,16.90
2019-06-10T20:03:57.962Z,16.80
2019-06-10T20:06:28.442Z,16.80
2019-06-10T20:08:58.970Z,16.70
2019-06-10T20:11:32.226Z,16.70
2019-06-10T20:14:02.788Z,16.70
2019-06-10T20:16:33.252Z,16.70
2019-06-10T20:19:03.752Z,16.70
2019-06-10T20:21:34.184Z,16.70
2019-06-10T20:24:04.740Z,16.70
2019-06-10T20:26:36.552Z,16.70
2019-06-10T20:29:07.281Z,16.60
2019-06-10T20:31:37.916Z,16.50
2019-06-10T20:34:08.547Z,16.50
2019-06-10T20:36:39.374Z,16.40
2019-06-10T20:39:10.583Z,16.40
2019-06-10T20:41:44.263Z,16.30
2019-06-10T20:44:13.288Z,16.30
2019-06-10T20:46:46.143Z,16.30
2019-06-10T20:49:16.004Z,16.30
2019-06-10T20:52:01.595Z,16.10
2019-06-10T20:54:19.853Z,16.10
2019-06-10T20:56:53.180Z,16.10
2019-06-10T20:59:25.865Z,16.20
2019-06-10T21:01:56.667Z,16.10
2019-06-10T21:04:27.446Z,16.10
2019-06-10T21:07:02.475Z,16.10
2019-06-10T21:09:34.306Z,16.00
2019-06-10T21:12:04.785Z,16.00
2019-06-10T21:14:35.266Z,15.90
2019-06-10T21:17:05.731Z,15.90
2019-06-10T21:19:36.237Z,16.00
2019-06-10T21:22:07.537Z,16.00
2019-06-10T21:24:38.064Z,16.00
2019-06-10T21:27:08.572Z,15.90
2019-06-10T21:29:39.101Z,15.90
2019-06-10T21:32:09.633Z,15.90
2019-06-10T21:34:43.415Z,15.90
2019-06-10T21:37:13.172Z,15.90
2019-06-10T21:39:44.829Z,15.80
2019-06-10T21:42:15.867Z,15.80
2019-06-10T21:44:46.298Z,15.70
2019-06-10T21:47:16.848Z,15.70
2019-06-10T21:49:48.376Z,15.70
2019-06-10T21:52:18.932Z,15.60
2019-06-10T21:54:50.674Z,15.60
2019-06-10T21:57:22.121Z,15.50
2019-06-10T21:59:54.029Z,15.50
2019-06-10T22:02:24.856Z,15.50
2019-06-10T22:04:55.648Z,15.50
2019-06-10T22:07:26.153Z,15.40
2019-06-10T22:09:56.651Z,15.50
2019-06-10T22:12:27.200Z,15.60
2019-06-10T22:14:57.687Z,15.50
2019-06-10T22:17:28.082Z,15.40
2019-06-10T22:19:58.493Z,15.40
2019-06-10T22:22:28.934Z,15.40
2019-06-10T22:24:59.366Z,15.40
2019-06-10T22:27:29.874Z,15.30
2019-06-10T22:30:04.207Z,15.40
2019-06-10T22:32:32.504Z,15.40
2019-06-10T22:35:03.148Z,15.30
2019-06-10T22:37:33.586Z,15.30
2019-06-10T22:40:04.034Z,15.30
2019-06-10T22:42:34.486Z,15.30
2019-06-10T22:45:05.425Z,15.30
2019-06-10T22:47:35.885Z,15.30
2019-06-10T22:50:07.657Z,15.40
2019-06-10T22:52:38.351Z,15.40
2019-06-10T22:55:09.206Z,15.40
2019-06-10T22:57:43.744Z,15.40
2019-06-10T23:00:13.159Z,15.50
2019-06-10T23:02:43.930Z,15.60
2019-06-10T23:05:17.241Z,15.60
2019-06-10T23:07:46.736Z,15.60
2019-06-10T23:10:18.728Z,15.60
2019-06-10T23:12:49.151Z,15.60
2019-06-10T23:17:58.796Z,15.50
2019-06-10T23:20:29.439Z,15.50
2019-06-10T23:23:00.358Z,15.40
2019-06-10T23:25:32.602Z,15.40
2019-06-10T23:28:03.020Z,15.40
2019-06-10T23:30:33.543Z,15.40
2019-06-10T23:33:04.130Z,15.40
2019-06-10T23:35:34.641Z,15.30
2019-06-10T23:38:05.403Z,15.30
2019-06-10T23:40:35.885Z,15.30
2019-06-10T23:43:06.308Z,15.40
2019-06-10T23:45:36.682Z,15.40
2019-06-10T23:48:07.268Z,15.40
2019-06-10T23:50:37.735Z,15.40
2019-06-10T23:53:08.224Z,15.40
2019-06-10T23:55:38.685Z,15.40
2019-06-10T23:58:09.201Z,15.50
